createdAt,value
2018-12-16T00:01:58.622Z,36.50
2018-12-16T00:04:26.261Z,43.60
2018-12-16T00:06:53.867Z,45.43
2018-12-16T00:09:21.492Z,43.07
2018-12-16T00:11:49.066Z,41.67
2018-12-16T00:14:16.641Z,41.03
2018-12-16T00:16:44.228Z,45.50
2018-12-16T00:19:11.811Z,41.77
2018-12-16T00:21:39.366Z,43.10
2018-12-16T00:24:06.983Z,47.10
2018-12-16T00:26:46.419Z,47.07
2018-12-16T00:29:14.001Z,41.90
2018-12-16T00:31:41.583Z,44.97
2018-12-16T00:34:09.152Z,47.03
2018-12-16T00:36:37.018Z,44.77
2018-12-16T00:39:11.608Z,44.70
2018-12-16T00:41:39.268Z,47.57
2018-12-16T00:44:06.835Z,43.73
2018-12-16T00:46:34.419Z,40.30
2018-12-16T00:49:02.050Z,49.33
2018-12-16T00:51:29.609Z,45.43
2018-12-16T00:53:57.173Z,40.50
2018-12-16T00:56:24.762Z,46.00
2018-12-16T00:58:52.360Z,49.00
2018-12-16T01:01:20.274Z,47.33
2018-12-16T01:03:47.889Z,44.13
2018-12-16T01:06:15.471Z,43.63
2018-12-16T01:08:43.677Z,44.20
2018-12-16T01:11:11.298Z,42.70
2018-12-16T01:13:38.846Z,48.50
2018-12-16T01:16:06.445Z,48.10
2018-12-16T01:18:34.068Z,44.03
2018-12-16T01:21:01.732Z,46.77
2018-12-16T01:23:29.293Z,45.00
2018-12-16T01:25:56.886Z,46.40
2018-12-16T01:28:24.422Z,45.27
2018-12-16T01:30:52.011Z,45.20
2018-12-16T01:33:20.378Z,49.40
2018-12-16T01:35:47.965Z,49.37
2018-12-16T01:38:15.573Z,42.20
2018-12-16T01:40:43.135Z,48.77
2018-12-16T01:43:10.717Z,43.50
2018-12-16T01:45:38.275Z,43.90
2018-12-16T01:48:05.839Z,44.30
2018-12-16T01:50:33.421Z,41.60
2018-12-16T01:53:01.128Z,49.90
2018-12-16T01:55:28.717Z,43.40
2018-12-16T01:57:56.318Z,38.40
2018-12-16T02:00:23.902Z,40.70
2018-12-16T02:02:51.671Z,42.00
2018-12-16T02:05:19.288Z,43.03
2018-12-16T02:07:46.866Z,41.57
2018-12-16T02:10:14.620Z,40.60
2018-12-16T02:12:43.063Z,43.07
2018-12-16T02:15:10.614Z,40.93
2018-12-16T02:17:38.288Z,39.10
2018-12-16T02:20:06.245Z,40.43
2018-12-16T02:22:33.817Z,40.40
2018-12-16T02:25:01.411Z,41.43
2018-12-16T02:27:29.032Z,36.43
2018-12-16T02:29:56.686Z,39.87
2018-12-16T02:32:24.260Z,42.73
2018-12-16T02:34:51.874Z,40.50
2018-12-16T02:37:19.441Z,39.63
2018-12-16T02:39:46.993Z,38.80
2018-12-16T02:42:14.582Z,36.97
2018-12-16T02:44:42.216Z,35.57
2018-12-16T02:47:09.815Z,37.57
2018-12-16T02:49:37.440Z,41.17
2018-12-16T02:52:05.034Z,37.77
2018-12-16T02:54:32.875Z,38.43
2018-12-16T02:57:00.439Z,41.67
2018-12-16T02:59:28.052Z,38.13
2018-12-16T03:01:55.605Z,37.63
2018-12-16T03:04:23.169Z,39.47
2018-12-16T03:06:50.726Z,39.67
2018-12-16T03:09:18.875Z,41.30
2018-12-16T03:11:46.525Z,42.67
2018-12-16T03:14:14.148Z,42.00
2018-12-16T03:16:41.724Z,44.30
2018-12-16T03:19:09.339Z,41.30
2018-12-16T03:21:37.026Z,41.87
2018-12-16T03:24:04.602Z,40.50
2018-12-16T03:26:35.809Z,40.80
2018-12-16T03:29:02.443Z,42.87
2018-12-16T03:31:30.056Z,42.20
2018-12-16T03:33:57.685Z,43.13
2018-12-16T03:36:25.267Z,41.60
2018-12-16T03:38:52.908Z,41.63
2018-12-16T03:41:20.493Z,41.27
2018-12-16T03:43:48.108Z,43.07
2018-12-16T03:46:16.740Z,41.87
2018-12-16T03:48:44.383Z,39.73
2018-12-16T03:51:11.938Z,44.23
2018-12-16T03:53:39.525Z,40.93
2018-12-16T03:56:07.176Z,44.87
2018-12-16T03:58:34.822Z,40.40
2018-12-16T04:01:02.489Z,45.17
2018-12-16T04:03:30.062Z,38.70
2018-12-16T04:05:57.664Z,44.23
2018-12-16T04:08:25.276Z,42.77
2018-12-16T04:10:52.899Z,42.83
2018-12-16T04:13:20.476Z,37.33
2018-12-16T04:15:48.053Z,43.50
2018-12-16T04:18:16.294Z,45.37
2018-12-16T04:20:43.964Z,38.77
2018-12-16T04:23:11.545Z,44.77
2018-12-16T04:25:39.106Z,48.80
2018-12-16T04:28:07.461Z,47.37
2018-12-16T04:30:35.036Z,44.67
2018-12-16T04:33:02.601Z,45.37
2018-12-16T04:35:30.163Z,43.90
2018-12-16T04:37:57.723Z,47.20
2018-12-16T04:40:25.302Z,46.27
2018-12-16T04:42:52.956Z,50.83
2018-12-16T04:45:20.511Z,47.77
2018-12-16T04:47:48.125Z,51.43
2018-12-16T04:50:15.686Z,41.50
2018-12-16T04:52:43.280Z,48.33
2018-12-16T04:55:10.854Z,47.63
2018-12-16T04:57:38.411Z,51.80
2018-12-16T05:00:06.250Z,46.80
2018-12-16T05:02:33.972Z,53.87
2018-12-16T05:05:01.604Z,49.67
2018-12-16T05:07:29.206Z,53.37
2018-12-16T05:10:00.763Z,46.57
2018-12-16T05:12:28.403Z,53.00
2018-12-16T05:14:56.001Z,47.73
2018-12-16T05:17:23.618Z,51.77
2018-12-16T05:19:51.195Z,51.57
2018-12-16T05:22:18.782Z,51.37
2018-12-16T05:24:46.347Z,50.90
2018-12-16T05:27:13.938Z,54.87
2018-12-16T05:29:41.526Z,58.83
2018-12-16T05:32:09.125Z,50.70
2018-12-16T05:34:36.673Z,52.33
2018-12-16T05:37:04.227Z,52.23
2018-12-16T05:39:31.812Z,57.20
2018-12-16T05:42:00.347Z,60.70
2018-12-16T05:44:28.057Z,57.63
2018-12-16T05:46:55.613Z,59.43
2018-12-16T05:49:23.184Z,54.97
2018-12-16T05:51:50.771Z,60.53
2018-12-16T05:54:19.276Z,62.27
2018-12-16T05:56:46.848Z,57.30
2018-12-16T05:59:14.439Z,60.20
2018-12-16T06:01:42.014Z,61.43
2018-12-16T06:04:09.634Z,56.67
2018-12-16T06:06:37.190Z,64.10
2018-12-16T06:09:05.629Z,61.23
2018-12-16T06:11:33.231Z,59.80
2018-12-16T06:14:00.875Z,57.63
2018-12-16T06:16:28.434Z,61.47
2018-12-16T06:18:56.008Z,53.77
2018-12-16T06:21:23.599Z,57.23
2018-12-16T06:23:55.591Z,55.43
2018-12-16T06:26:20.816Z,56.77
2018-12-16T06:28:48.387Z,63.60
2018-12-16T06:31:15.945Z,65.77
2018-12-16T06:33:43.714Z,59.13
2018-12-16T06:36:11.355Z,55.63
2018-12-16T06:38:38.926Z,60.47
2018-12-16T06:41:06.490Z,62.03
2018-12-16T06:43:34.132Z,63.60
2018-12-16T06:46:01.727Z,60.93
2018-12-16T06:48:29.337Z,66.43
2018-12-16T06:50:56.936Z,63.33
2018-12-16T06:53:24.522Z,51.90
2018-12-16T06:55:52.064Z,63.63
2018-12-16T06:58:19.687Z,58.60
2018-12-16T07:00:47.271Z,67.70
2018-12-16T07:03:14.814Z,63.87
2018-12-16T07:05:42.438Z,63.63
2018-12-16T07:08:10.027Z,67.30
2018-12-16T07:10:37.795Z,69.37
2018-12-16T07:13:05.347Z,74.50
2018-12-16T07:15:36.470Z,65.13
2018-12-16T07:18:04.041Z,69.23
2018-12-16T07:20:31.628Z,63.60
2018-12-16T07:22:59.235Z,64.87
2018-12-16T07:25:26.920Z,64.17
2018-12-16T07:27:54.521Z,63.60
2018-12-16T07:30:22.143Z,76.73
2018-12-16T07:32:49.740Z,64.77
2018-12-16T07:35:17.989Z,74.97
2018-12-16T07:37:45.579Z,71.33
2018-12-16T07:40:13.186Z,80.73
2018-12-16T07:42:40.810Z,69.43
2018-12-16T07:45:08.448Z,84.40
2018-12-16T07:47:36.016Z,80.00
2018-12-16T07:50:04.388Z,85.63
2018-12-16T07:52:32.087Z,78.20
2018-12-16T07:54:59.906Z,86.20
2018-12-16T07:57:27.481Z,78.07
2018-12-16T07:59:55.064Z,80.67
2018-12-16T08:02:22.650Z,86.03
2018-12-16T08:04:50.390Z,78.27
2018-12-16T08:07:18.000Z,78.27
2018-12-16T08:09:45.633Z,92.97
2018-12-16T08:12:13.222Z,75.03
2018-12-16T08:14:40.823Z,86.27
2018-12-16T08:17:08.447Z,83.77
2018-12-16T08:19:36.110Z,86.40
2018-12-16T08:22:03.666Z,80.57
2018-12-16T08:24:31.265Z,78.10
2018-12-16T08:26:58.825Z,78.63
2018-12-16T08:29:26.418Z,74.30
2018-12-16T08:31:53.993Z,78.13
2018-12-16T08:34:22.622Z,93.37
2018-12-16T08:36:50.453Z,74.83
2018-12-16T08:39:18.113Z,83.70
2018-12-16T08:41:47.349Z,76.10
2018-12-16T08:44:15.031Z,72.57
2018-12-16T08:46:42.670Z,72.23
2018-12-16T08:49:10.264Z,74.30
2018-12-16T08:51:37.923Z,71.23
2018-12-16T08:54:05.502Z,74.47
2018-12-16T08:56:33.525Z,84.23
2018-12-16T08:59:01.172Z,75.60
2018-12-16T09:01:29.373Z,65.40
2018-12-16T09:03:57.184Z,75.70
2018-12-16T09:06:25.627Z,61.80
2018-12-16T09:08:53.689Z,65.03
2018-12-16T09:11:21.367Z,67.57
2018-12-16T09:13:48.964Z,68.53
2018-12-16T09:16:16.600Z,65.10
2018-12-16T09:18:44.323Z,66.37
2018-12-16T09:21:12.000Z,104.97
2018-12-16T09:23:39.644Z,84.47
2018-12-16T09:26:07.282Z,58.73
2018-12-16T09:28:34.887Z,73.70
2018-12-16T09:31:02.530Z,82.53
2018-12-16T09:33:30.194Z,59.77
2018-12-16T09:35:57.842Z,69.90
2018-12-16T09:38:25.423Z,87.03
2018-12-16T09:40:53.069Z,61.03
2018-12-16T09:43:20.646Z,79.07
2018-12-16T09:45:49.589Z,59.50
2018-12-16T09:48:18.010Z,56.00
2018-12-16T09:50:45.696Z,66.77
2018-12-16T09:53:13.307Z,70.97
2018-12-16T09:55:41.050Z,83.60
2018-12-16T09:58:09.578Z,68.97
2018-12-16T10:00:37.209Z,70.17
2018-12-16T10:03:04.960Z,69.57
2018-12-16T10:05:32.661Z,70.50
2018-12-16T10:08:00.264Z,66.80
2018-12-16T10:10:27.888Z,67.37
2018-12-16T10:12:55.451Z,73.43
2018-12-16T10:15:23.097Z,94.17
2018-12-16T10:17:50.690Z,79.40
2018-12-16T10:20:18.330Z,90.83
2018-12-16T10:22:45.925Z,81.27
2018-12-16T10:25:13.551Z,65.20
2018-12-16T10:27:41.151Z,58.10
2018-12-16T10:30:08.871Z,64.43
2018-12-16T10:32:36.467Z,75.07
2018-12-16T10:35:07.264Z,85.60
2018-12-16T10:37:34.885Z,53.27
2018-12-16T10:40:02.688Z,63.10
2018-12-16T10:42:30.281Z,87.00
2018-12-16T10:44:57.940Z,82.53
2018-12-16T10:47:25.661Z,84.93
2018-12-16T10:49:53.315Z,61.00
2018-12-16T10:52:21.018Z,91.70
2018-12-16T10:54:48.633Z,77.43
2018-12-16T10:57:16.262Z,88.50
2018-12-16T10:59:44.003Z,62.50
2018-12-16T11:02:11.623Z,75.57
2018-12-16T11:04:39.207Z,56.70
2018-12-16T11:07:06.823Z,56.37
2018-12-16T11:09:34.446Z,92.40
2018-12-16T11:12:02.105Z,74.93
2018-12-16T11:14:29.718Z,110.97
2018-12-16T11:16:57.282Z,71.00
2018-12-16T11:19:24.896Z,122.83
2018-12-16T11:21:52.482Z,66.97
2018-12-16T11:24:20.142Z,68.73
2018-12-16T11:26:47.885Z,62.27
2018-12-16T11:29:15.523Z,66.20
2018-12-16T11:31:43.286Z,76.53
2018-12-16T11:34:11.015Z,63.07
2018-12-16T11:36:38.568Z,76.07
2018-12-16T11:39:07.300Z,53.70
2018-12-16T11:41:34.853Z,87.13
2018-12-16T11:44:02.471Z,92.17
2018-12-16T11:46:30.208Z,100.53
2018-12-16T11:48:57.925Z,69.50
2018-12-16T11:51:25.636Z,63.30
2018-12-16T11:53:53.222Z,96.67
2018-12-16T11:56:20.881Z,82.53
2018-12-16T11:58:48.465Z,90.43
2018-12-16T12:01:16.268Z,116.80
2018-12-16T12:03:43.848Z,93.90
2018-12-16T12:06:11.461Z,86.20
2018-12-16T12:08:39.144Z,64.90
2018-12-16T12:11:06.805Z,73.53
2018-12-16T12:13:34.393Z,87.43
2018-12-16T12:16:01.972Z,77.77
2018-12-16T12:18:29.550Z,104.10
2018-12-16T12:20:57.142Z,67.63
2018-12-16T12:23:24.798Z,88.10
2018-12-16T12:25:52.347Z,118.27
2018-12-16T12:28:20.225Z,96.50
2018-12-16T12:30:47.923Z,101.90
2018-12-16T12:33:15.640Z,67.67
2018-12-16T12:35:43.317Z,62.30
2018-12-16T12:38:10.914Z,57.03
2018-12-16T12:40:38.474Z,68.07
2018-12-16T12:43:06.086Z,64.03
2018-12-16T12:45:33.737Z,62.30
2018-12-16T12:48:01.324Z,65.33
2018-12-16T12:50:28.918Z,70.43
2018-12-16T12:52:56.579Z,60.33
2018-12-16T12:55:26.946Z,60.67
2018-12-16T12:57:53.787Z,58.53
2018-12-16T13:00:21.342Z,54.40
2018-12-16T13:02:48.980Z,72.87
2018-12-16T13:05:16.570Z,62.07
2018-12-16T13:07:44.294Z,52.47
2018-12-16T13:10:11.843Z,59.50
2018-12-16T13:12:40.217Z,72.43
2018-12-16T13:15:07.766Z,70.77
2018-12-16T13:17:35.339Z,54.10
2018-12-16T13:20:03.191Z,69.40
2018-12-16T13:22:30.893Z,68.60
2018-12-16T13:25:10.370Z,83.53
2018-12-16T13:27:38.075Z,59.47
2018-12-16T13:30:06.737Z,58.23
2018-12-16T13:32:34.390Z,60.97
2018-12-16T13:35:02.067Z,67.33
2018-12-16T13:37:29.613Z,86.53
2018-12-16T13:39:57.188Z,66.53
2018-12-16T13:42:24.761Z,66.20
2018-12-16T13:44:52.366Z,69.10
2018-12-16T13:47:19.955Z,79.97
2018-12-16T13:49:47.527Z,80.73
2018-12-16T13:52:15.122Z,75.67
2018-12-16T13:54:42.769Z,68.67
2018-12-16T13:57:10.424Z,79.20
2018-12-16T13:59:38.138Z,65.13
2018-12-16T14:02:05.730Z,64.57
2018-12-16T14:04:33.377Z,74.40
2018-12-16T14:07:00.988Z,79.37
2018-12-16T14:09:29.145Z,73.40
2018-12-16T14:11:56.883Z,70.87
2018-12-16T14:14:24.467Z,68.53
2018-12-16T14:16:52.027Z,75.40
2018-12-16T14:19:19.662Z,65.27
2018-12-16T14:21:47.349Z,71.03
2018-12-16T14:24:14.951Z,74.97
2018-12-16T14:26:42.573Z,63.93
2018-12-16T14:29:10.157Z,66.83
2018-12-16T14:31:37.758Z,71.30
2018-12-16T14:34:05.420Z,70.50
2018-12-16T14:36:33.012Z,64.27
2018-12-16T14:39:00.720Z,65.27
2018-12-16T14:41:28.385Z,60.90
2018-12-16T14:43:55.990Z,61.87
2018-12-16T14:46:23.649Z,74.67
2018-12-16T14:48:51.293Z,72.83
2018-12-16T14:51:18.966Z,78.43
2018-12-16T14:53:46.725Z,75.90
2018-12-16T14:56:14.326Z,75.43
2018-12-16T14:58:41.944Z,72.63
2018-12-16T15:01:09.530Z,72.33
2018-12-16T15:03:37.109Z,71.67
2018-12-16T15:06:04.899Z,70.10
2018-12-16T15:08:32.561Z,81.53
2018-12-16T15:11:00.265Z,70.63
2018-12-16T15:13:27.846Z,62.33
2018-12-16T15:15:55.683Z,72.90
2018-12-16T15:18:23.287Z,60.83
2018-12-16T15:20:51.377Z,69.03
2018-12-16T15:23:18.984Z,70.27
2018-12-16T15:25:46.638Z,70.73
2018-12-16T15:28:14.306Z,69.27
2018-12-16T15:30:41.940Z,68.23
2018-12-16T15:33:09.635Z,72.47
2018-12-16T15:35:37.263Z,66.87
2018-12-16T15:38:04.954Z,73.57
2018-12-16T15:40:32.590Z,69.53
2018-12-16T15:43:00.161Z,74.90
2018-12-16T15:45:27.844Z,72.67
2018-12-16T15:47:55.447Z,76.87
2018-12-16T15:50:23.020Z,80.60
2018-12-16T15:52:50.621Z,83.13
2018-12-16T15:55:19.174Z,84.80
2018-12-16T15:57:46.826Z,102.50
2018-12-16T16:00:15.027Z,88.03
2018-12-16T16:02:42.669Z,116.97
2018-12-16T16:05:10.295Z,133.77
2018-12-16T16:07:37.871Z,94.57
2018-12-16T16:10:06.706Z,109.57
2018-12-16T16:12:34.331Z,96.30
2018-12-16T16:15:01.885Z,98.77
2018-12-16T16:17:29.530Z,97.00
2018-12-16T16:19:58.102Z,103.13
2018-12-16T16:22:25.781Z,100.37
2018-12-16T16:24:53.374Z,114.50
2018-12-16T16:27:21.029Z,111.37
2018-12-16T16:29:49.704Z,110.97
2018-12-16T16:32:17.334Z,105.13
2018-12-16T16:34:45.883Z,97.63
2018-12-16T16:37:13.496Z,105.23
2018-12-16T16:39:41.142Z,101.50
2018-12-16T16:42:08.948Z,89.47
2018-12-16T16:44:36.594Z,99.03
2018-12-16T16:47:04.257Z,114.47
2018-12-16T16:49:32.006Z,90.43
2018-12-16T16:51:59.588Z,104.00
2018-12-16T16:54:27.152Z,113.80
2018-12-16T16:56:54.781Z,102.67
2018-12-16T16:59:22.388Z,106.63
2018-12-16T17:01:50.026Z,82.67
2018-12-16T17:04:17.698Z,77.23
2018-12-16T17:06:45.971Z,81.97
2018-12-16T17:09:13.866Z,86.47
2018-12-16T17:11:41.421Z,79.50
2018-12-16T17:14:09.019Z,81.80
2018-12-16T17:16:36.647Z,78.97
2018-12-16T17:19:04.487Z,85.33
2018-12-16T17:21:32.703Z,81.40
2018-12-16T17:24:00.279Z,80.07
2018-12-16T17:26:30.214Z,81.03
2018-12-16T17:28:57.572Z,89.90
2018-12-16T17:31:25.217Z,76.70
2018-12-16T17:33:52.859Z,86.37
2018-12-16T17:36:20.561Z,90.20
2018-12-16T17:38:48.186Z,82.93
2018-12-16T17:41:15.967Z,84.00
2018-12-16T17:43:43.685Z,86.03
2018-12-16T17:46:11.394Z,90.73
2018-12-16T17:48:39.059Z,95.03
2018-12-16T17:51:06.645Z,96.53
2018-12-16T17:53:34.250Z,81.47
2018-12-16T17:56:02.080Z,79.10
2018-12-16T17:58:29.952Z,78.30
2018-12-16T18:00:57.532Z,69.23
2018-12-16T18:03:26.262Z,66.93
2018-12-16T18:05:53.952Z,61.53
2018-12-16T18:08:21.585Z,53.90
2018-12-16T18:10:49.250Z,60.97
2018-12-16T18:13:16.858Z,62.40
2018-12-16T18:15:44.474Z,67.27
2018-12-16T18:18:12.075Z,71.63
2018-12-16T18:20:39.696Z,71.17
2018-12-16T18:23:07.336Z,77.33
2018-12-16T18:25:34.967Z,74.10
2018-12-16T18:28:02.580Z,78.03
2018-12-16T18:30:30.205Z,78.20
2018-12-16T18:32:57.965Z,92.00
2018-12-16T18:35:26.406Z,79.43
2018-12-16T18:37:54.302Z,80.07
2018-12-16T18:40:21.890Z,87.00
2018-12-16T18:42:49.543Z,92.20
2018-12-16T18:45:17.110Z,80.90
2018-12-16T18:47:44.859Z,93.03
2018-12-16T18:50:12.491Z,86.17
2018-12-16T18:52:40.246Z,90.50
2018-12-16T18:55:08.313Z,85.87
2018-12-16T18:57:36.078Z,83.67
2018-12-16T19:00:05.733Z,77.90
2018-12-16T19:02:33.388Z,71.67
2018-12-16T19:05:01.010Z,67.23
2018-12-16T19:07:28.645Z,63.57
2018-12-16T19:09:56.290Z,59.73
2018-12-16T19:12:23.895Z,57.07
2018-12-16T19:14:51.997Z,51.13
2018-12-16T19:17:19.606Z,55.03
2018-12-16T19:19:47.249Z,62.00
2018-12-16T19:22:14.841Z,55.33
2018-12-16T19:24:42.515Z,56.87
2018-12-16T19:27:10.557Z,50.97
2018-12-16T19:29:38.167Z,47.80
2018-12-16T19:32:05.809Z,45.60
2018-12-16T19:34:33.450Z,48.90
2018-12-16T19:37:01.024Z,47.63
2018-12-16T19:39:28.587Z,44.57
2018-12-16T19:41:56.181Z,44.00
2018-12-16T19:44:24.635Z,45.63
2018-12-16T19:46:52.209Z,45.03
2018-12-16T19:49:19.782Z,44.87
2018-12-16T19:51:47.343Z,51.10
2018-12-16T19:54:14.930Z,43.87
2018-12-16T19:56:42.728Z,48.23
2018-12-16T19:59:10.325Z,45.30
2018-12-16T20:01:37.913Z,45.07
2018-12-16T20:04:11.303Z,46.00
2018-12-16T20:06:44.031Z,43.60
2018-12-16T20:09:11.847Z,50.30
2018-12-16T20:11:39.432Z,51.80
2018-12-16T20:14:06.999Z,45.77
2018-12-16T20:16:35.687Z,47.00
2018-12-16T20:19:03.307Z,49.13
2018-12-16T20:21:30.881Z,52.27
2018-12-16T20:23:58.456Z,56.53
2018-12-16T20:26:26.040Z,57.20
2018-12-16T20:28:53.685Z,61.13
2018-12-16T20:31:21.405Z,63.57
2018-12-16T20:33:49.015Z,71.13
2018-12-16T20:36:16.630Z,65.87
2018-12-16T20:38:44.233Z,62.83
2018-12-16T20:41:11.807Z,65.57
2018-12-16T20:43:39.413Z,71.83
2018-12-16T20:46:07.011Z,83.63
2018-12-16T20:48:34.644Z,72.93
2018-12-16T20:51:02.213Z,88.70
2018-12-16T20:53:30.686Z,83.00
2018-12-16T20:55:58.263Z,94.03
2018-12-16T20:58:25.820Z,99.77
2018-12-16T21:00:53.401Z,112.23
2018-12-16T21:03:20.991Z,109.03
2018-12-16T21:05:48.581Z,101.17
2018-12-16T21:08:16.140Z,112.13
2018-12-16T21:10:44.286Z,109.50
2018-12-16T21:13:17.719Z,108.80
2018-12-16T21:15:50.862Z,109.37
2018-12-16T21:18:23.873Z,106.57
2018-12-16T21:20:51.507Z,108.90
2018-12-16T21:23:19.268Z,110.80
2018-12-16T21:25:46.891Z,106.17
2018-12-16T21:28:14.484Z,104.03
2018-12-16T21:30:42.158Z,94.03
2018-12-16T21:33:09.750Z,109.03
2018-12-16T21:35:38.965Z,97.07
2018-12-16T21:38:06.625Z,92.03
2018-12-16T21:40:34.240Z,89.53
2018-12-16T21:43:01.829Z,93.10
2018-12-16T21:45:29.513Z,93.33
2018-12-16T21:47:57.127Z,97.83
2018-12-16T21:50:26.955Z,92.67
2018-12-16T21:52:55.067Z,104.77
2018-12-16T21:55:22.639Z,110.23
2018-12-16T21:57:50.250Z,108.50
2018-12-16T22:00:17.861Z,107.23
2018-12-16T22:02:45.503Z,117.40
2018-12-16T22:05:14.691Z,95.87
2018-12-16T22:07:42.895Z,94.07
2018-12-16T22:10:10.486Z,101.43
2018-12-16T22:12:38.085Z,95.97
2018-12-16T22:15:05.664Z,85.43
2018-12-16T22:17:33.329Z,86.57
2018-12-16T22:20:01.038Z,79.60
2018-12-16T22:22:28.639Z,77.20
2018-12-16T22:24:56.312Z,88.27
2018-12-16T22:27:23.931Z,78.97
2018-12-16T22:29:51.520Z,91.27
2018-12-16T22:32:19.128Z,73.10
2018-12-16T22:34:46.743Z,71.43
2018-12-16T22:37:14.545Z,85.00
2018-12-16T22:39:42.283Z,80.53
2018-12-16T22:42:09.914Z,72.20
2018-12-16T22:44:37.501Z,81.20
2018-12-16T22:47:05.114Z,69.77
2018-12-16T22:49:32.698Z,77.80
2018-12-16T22:52:00.614Z,73.10
2018-12-16T22:54:28.274Z,73.73
2018-12-16T22:56:55.908Z,74.13
2018-12-16T22:59:23.514Z,64.80
2018-12-16T23:01:51.103Z,77.73
2018-12-16T23:04:18.683Z,70.07
2018-12-16T23:06:46.247Z,76.47
2018-12-16T23:09:13.858Z,71.73
2018-12-16T23:11:41.439Z,79.63
2018-12-16T23:14:09.023Z,75.97
2018-12-16T23:16:36.619Z,77.17
2018-12-16T23:19:04.226Z,77.60
2018-12-16T23:21:31.814Z,73.43
2018-12-16T23:23:59.429Z,70.67
2018-12-16T23:26:27.002Z,75.07
2018-12-16T23:28:54.568Z,78.33
2018-12-16T23:31:22.205Z,73.43
2018-12-16T23:33:49.788Z,61.33
2018-12-16T23:36:17.381Z,58.27
2018-12-16T23:38:45.030Z,57.20
2018-12-16T23:41:12.603Z,54.80
2018-12-16T23:43:40.212Z,55.57
2018-12-16T23:46:07.787Z,64.93
2018-12-16T23:48:35.380Z,76.30
2018-12-16T23:51:03.029Z,70.33
2018-12-16T23:53:30.677Z,71.03
2018-12-16T23:55:58.249Z,77.83
2018-12-16T23:58:25.833Z,75.53
